sensor_id;sensor_type;location;lat;lon;timestamp;temperature;humidity
24636;DHT22;12772;49.794;10.024;2023-05-29T00:02:31;19.00;29.00
24636;DHT22;12772;49.794;10.024;2023-05-29T00:06:33;18.80;29.20
24636;DHT22;12772;49.794;10.024;2023-05-29T00:10:36;18.70;29.40
24636;DHT22;12772;49.794;10.024;2023-05-29T00:14:38;18.60;29.70
24636;DHT22;12772;49.794;10.024;2023-05-29T00:18:40;18.60;29.90
24636;DHT22;12772;49.794;10.024;2023-05-29T00:22:46;18.60;30.00
24636;DHT22;12772;49.794;10.024;2023-05-29T00:26:48;18.60;30.00
24636;DHT22;12772;49.794;10.024;2023-05-29T00:30:50;18.60;30.00
24636;DHT22;12772;49.794;10.024;2023-05-29T00:34:52;18.50;30.00
24636;DHT22;12772;49.794;10.024;2023-05-29T00:38:54;18.50;30.30
24636;DHT22;12772;49.794;10.024;2023-05-29T00:42:56;18.50;30.50
24636;DHT22;12772;49.794;10.024;2023-05-29T00:46:58;18.40;30.70
24636;DHT22;12772;49.794;10.024;2023-05-29T00:51:01;18.40;30.80
24636;DHT22;12772;49.794;10.024;2023-05-29T00:55:03;18.30;30.90
24636;DHT22;12772;49.794;10.024;2023-05-29T00:59:06;18.30;31.10
24636;DHT22;12772;49.794;10.024;2023-05-29T01:03:08;18.30;31.10
24636;DHT22;12772;49.794;10.024;2023-05-29T01:07:10;18.20;31.10
24636;DHT22;12772;49.794;10.024;2023-05-29T01:11:21;18.10;31.30
24636;DHT22;12772;49.794;10.024;2023-05-29T01:15:44;18.10;31.50
24636;DHT22;12772;49.794;10.024;2023-05-29T01:24:38;18.00;31.30
24636;DHT22;12772;49.794;10.024;2023-05-29T01:28:51;17.90;31.20
24636;DHT22;12772;49.794;10.024;2023-05-29T01:32:54;17.90;31.30
24636;DHT22;12772;49.794;10.024;2023-05-29T01:36:57;17.90;31.20
24636;DHT22;12772;49.794;10.024;2023-05-29T01:40:59;17.90;31.30
24636;DHT22;12772;49.794;10.024;2023-05-29T01:45:01;17.90;31.30
24636;DHT22;12772;49.794;10.024;2023-05-29T01:49:05;17.90;31.30
24636;DHT22;12772;49.794;10.024;2023-05-29T01:53:07;17.80;31.30
24636;DHT22;12772;49.794;10.024;2023-05-29T01:57:09;17.80;31.30
24636;DHT22;12772;49.794;10.024;2023-05-29T02:01:12;17.80;31.60
24636;DHT22;12772;49.794;10.024;2023-05-29T02:05:14;17.70;31.50
24636;DHT22;12772;49.794;10.024;2023-05-29T02:09:17;17.70;31.50
24636;DHT22;12772;49.794;10.024;2023-05-29T02:13:19;17.60;31.50
24636;DHT22;12772;49.794;10.024;2023-05-29T02:17:21;17.60;31.80
24636;DHT22;12772;49.794;10.024;2023-05-29T02:21:23;17.50;31.80
24636;DHT22;12772;49.794;10.024;2023-05-29T02:25:25;17.50;32.00
24636;DHT22;12772;49.794;10.024;2023-05-29T02:29:27;17.40;32.20
24636;DHT22;12772;49.794;10.024;2023-05-29T02:33:29;17.30;32.60
24636;DHT22;12772;49.794;10.024;2023-05-29T02:37:31;17.20;32.60
24636;DHT22;12772;49.794;10.024;2023-05-29T02:41:33;17.20;32.70
24636;DHT22;12772;49.794;10.024;2023-05-29T02:45:37;17.20;32.80
24636;DHT22;12772;49.794;10.024;2023-05-29T02:49:38;17.10;32.80
24636;DHT22;12772;49.794;10.024;2023-05-29T02:53:40;17.10;33.20
24636;DHT22;12772;49.794;10.024;2023-05-29T02:57:42;17.00;33.10
24636;DHT22;12772;49.794;10.024;2023-05-29T03:01:44;17.00;33.10
24636;DHT22;12772;49.794;10.024;2023-05-29T03:05:48;16.90;33.40
24636;DHT22;12772;49.794;10.024;2023-05-29T03:09:50;16.80;33.70
24636;DHT22;12772;49.794;10.024;2023-05-29T03:13:53;16.80;33.70
24636;DHT22;12772;49.794;10.024;2023-05-29T03:17:55;16.80;33.90
24636;DHT22;12772;49.794;10.024;2023-05-29T03:21:57;16.70;33.70
24636;DHT22;12772;49.794;10.024;2023-05-29T03:25:59;16.60;33.70
24636;DHT22;12772;49.794;10.024;2023-05-29T03:30:01;16.60;33.80
24636;DHT22;12772;49.794;10.024;2023-05-29T03:34:03;16.60;34.00
24636;DHT22;12772;49.794;10.024;2023-05-29T03:38:05;16.60;34.00
24636;DHT22;12772;49.794;10.024;2023-05-29T03:42:07;16.60;34.10
24636;DHT22;12772;49.794;10.024;2023-05-29T03:46:09;16.50;34.10
24636;DHT22;12772;49.794;10.024;2023-05-29T03:50:11;16.50;34.20
24636;DHT22;12772;49.794;10.024;2023-05-29T03:54:15;16.40;34.30
24636;DHT22;12772;49.794;10.024;2023-05-29T03:58:17;16.40;34.60
24636;DHT22;12772;49.794;10.024;2023-05-29T04:02:19;16.40;34.60
24636;DHT22;12772;49.794;10.024;2023-05-29T04:06:21;16.40;34.80
24636;DHT22;12772;49.794;10.024;2023-05-29T04:10:24;16.30;34.70
24636;DHT22;12772;49.794;10.024;2023-05-29T04:14:26;16.30;34.90
24636;DHT22;12772;49.794;10.024;2023-05-29T04:18:28;16.20;35.20
24636;DHT22;12772;49.794;10.024;2023-05-29T04:22:30;16.30;35.50
24636;DHT22;12772;49.794;10.024;2023-05-29T04:26:32;16.30;35.50
24636;DHT22;12772;49.794;10.024;2023-05-29T04:30:34;16.30;35.50
24636;DHT22;12772;49.794;10.024;2023-05-29T04:34:39;16.40;35.60
24636;DHT22;12772;49.794;10.024;2023-05-29T04:38:41;16.40;35.50
24636;DHT22;12772;49.794;10.024;2023-05-29T04:42:45;16.40;35.70
24636;DHT22;12772;49.794;10.024;2023-05-29T04:46:47;16.50;36.00
24636;DHT22;12772;49.794;10.024;2023-05-29T04:50:52;16.60;35.70
24636;DHT22;12772;49.794;10.024;2023-05-29T04:54:54;16.60;35.40
24636;DHT22;12772;49.794;10.024;2023-05-29T04:58:57;16.70;35.50
24636;DHT22;12772;49.794;10.024;2023-05-29T05:02:59;16.70;35.20
24636;DHT22;12772;49.794;10.024;2023-05-29T05:07:01;16.70;35.20
24636;DHT22;12772;49.794;10.024;2023-05-29T05:11:04;16.80;35.30
24636;DHT22;12772;49.794;10.024;2023-05-29T05:15:07;16.90;35.30
24636;DHT22;12772;49.794;10.024;2023-05-29T05:19:09;17.00;35.10
24636;DHT22;12772;49.794;10.024;2023-05-29T05:23:12;17.10;35.10
24636;DHT22;12772;49.794;10.024;2023-05-29T05:27:14;17.20;35.00
24636;DHT22;12772;49.794;10.024;2023-05-29T05:31:16;17.40;34.80
24636;DHT22;12772;49.794;10.024;2023-05-29T05:35:18;17.50;34.90
24636;DHT22;12772;49.794;10.024;2023-05-29T05:39:20;17.70;34.80
24636;DHT22;12772;49.794;10.024;2023-05-29T05:43:23;17.80;34.40
24636;DHT22;12772;49.794;10.024;2023-05-29T05:47:27;17.90;34.40
24636;DHT22;12772;49.794;10.024;2023-05-29T05:51:29;18.00;34.20
24636;DHT22;12772;49.794;10.024;2023-05-29T05:55:31;18.10;34.10
24636;DHT22;12772;49.794;10.024;2023-05-29T05:59:33;18.20;33.80
24636;DHT22;12772;49.794;10.024;2023-05-29T06:03:35;18.30;33.60
24636;DHT22;12772;49.794;10.024;2023-05-29T06:07:38;18.50;33.30
24636;DHT22;12772;49.794;10.024;2023-05-29T06:11:40;18.50;32.80
24636;DHT22;12772;49.794;10.024;2023-05-29T06:15:42;18.70;32.60
24636;DHT22;12772;49.794;10.024;2023-05-29T06:19:44;18.80;32.70
24636;DHT22;12772;49.794;10.024;2023-05-29T06:23:46;18.80;32.70
24636;DHT22;12772;49.794;10.024;2023-05-29T06:27:49;18.90;32.50
24636;DHT22;12772;49.794;10.024;2023-05-29T06:31:51;19.00;32.30
24636;DHT22;12772;49.794;10.024;2023-05-29T06:35:53;19.20;32.40
24636;DHT22;12772;49.794;10.024;2023-05-29T06:39:55;19.30;31.70
24636;DHT22;12772;49.794;10.024;2023-05-29T06:43:57;19.40;31.60
24636;DHT22;12772;49.794;10.024;2023-05-29T06:47:59;19.50;31.60
24636;DHT22;12772;49.794;10.024;2023-05-29T06:52:01;19.70;31.60
24636;DHT22;12772;49.794;10.024;2023-05-29T06:56:03;19.80;32.20
24636;DHT22;12772;49.794;10.024;2023-05-29T07:00:06;20.00;31.10
24636;DHT22;12772;49.794;10.024;2023-05-29T07:04:08;20.20;30.40
24636;DHT22;12772;49.794;10.024;2023-05-29T07:08:10;20.30;30.20
24636;DHT22;12772;49.794;10.024;2023-05-29T07:12:12;20.50;30.00
24636;DHT22;12772;49.794;10.024;2023-05-29T07:16:14;20.60;30.00
24636;DHT22;12772;49.794;10.024;2023-05-29T07:20:16;20.80;29.10
24636;DHT22;12772;49.794;10.024;2023-05-29T07:24:20;20.90;28.50
24636;DHT22;12772;49.794;10.024;2023-05-29T07:28:22;21.10;28.60
24636;DHT22;12772;49.794;10.024;2023-05-29T07:32:24;21.20;28.70
24636;DHT22;12772;49.794;10.024;2023-05-29T07:36:29;21.40;28.80
24636;DHT22;12772;49.794;10.024;2023-05-29T07:40:32;21.60;29.00
24636;DHT22;12772;49.794;10.024;2023-05-29T07:44:34;21.70;29.10
24636;DHT22;12772;49.794;10.024;2023-05-29T07:48:36;21.80;29.20
24636;DHT22;12772;49.794;10.024;2023-05-29T07:52:38;21.90;29.20
24636;DHT22;12772;49.794;10.024;2023-05-29T07:56:40;22.10;29.20
24636;DHT22;12772;49.794;10.024;2023-05-29T08:00:44;22.20;28.80
24636;DHT22;12772;49.794;10.024;2023-05-29T08:04:46;22.40;28.60
24636;DHT22;12772;49.794;10.024;2023-05-29T08:08:48;22.50;28.40
24636;DHT22;12772;49.794;10.024;2023-05-29T08:12:51;22.70;28.00
24636;DHT22;12772;49.794;10.024;2023-05-29T08:16:53;22.90;27.50
24636;DHT22;12772;49.794;10.024;2023-05-29T08:20:55;23.00;27.30
24636;DHT22;12772;49.794;10.024;2023-05-29T08:24:57;23.10;27.70
24636;DHT22;12772;49.794;10.024;2023-05-29T08:28:59;23.20;27.90
24636;DHT22;12772;49.794;10.024;2023-05-29T08:33:01;23.30;27.00
24636;DHT22;12772;49.794;10.024;2023-05-29T08:37:03;23.50;27.20
24636;DHT22;12772;49.794;10.024;2023-05-29T08:41:07;23.70;26.20
24636;DHT22;12772;49.794;10.024;2023-05-29T08:45:13;23.80;25.20
24636;DHT22;12772;49.794;10.024;2023-05-29T08:49:19;23.90;25.20
24636;DHT22;12772;49.794;10.024;2023-05-29T08:53:23;24.10;25.40
24636;DHT22;12772;49.794;10.024;2023-05-29T08:57:28;24.20;24.10
24636;DHT22;12772;49.794;10.024;2023-05-29T09:01:31;24.30;24.10
24636;DHT22;12772;49.794;10.024;2023-05-29T09:05:33;24.40;24.10
24636;DHT22;12772;49.794;10.024;2023-05-29T09:09:40;24.60;24.00
24636;DHT22;12772;49.794;10.024;2023-05-29T09:13:43;24.70;23.20
24636;DHT22;12772;49.794;10.024;2023-05-29T09:17:55;24.80;23.50
24636;DHT22;12772;49.794;10.024;2023-05-29T09:22:06;24.90;22.70
24636;DHT22;12772;49.794;10.024;2023-05-29T09:26:14;25.10;23.20
24636;DHT22;12772;49.794;10.024;2023-05-29T09:30:43;25.20;22.60
24636;DHT22;12772;49.794;10.024;2023-05-29T09:34:45;25.40;23.00
24636;DHT22;12772;49.794;10.024;2023-05-29T09:38:47;25.60;21.90
24636;DHT22;12772;49.794;10.024;2023-05-29T09:42:49;25.60;20.90
24636;DHT22;12772;49.794;10.024;2023-05-29T09:46:58;25.70;21.50
24636;DHT22;12772;49.794;10.024;2023-05-29T09:51:02;25.70;21.10
24636;DHT22;12772;49.794;10.024;2023-05-29T09:55:04;25.70;20.80
24636;DHT22;12772;49.794;10.024;2023-05-29T09:59:11;25.80;20.80
24636;DHT22;12772;49.794;10.024;2023-05-29T10:03:13;25.90;20.90
24636;DHT22;12772;49.794;10.024;2023-05-29T10:07:28;26.00;20.50
24636;DHT22;12772;49.794;10.024;2023-05-29T10:11:33;26.00;19.90
24636;DHT22;12772;49.794;10.024;2023-05-29T10:15:35;26.10;20.10
24636;DHT22;12772;49.794;10.024;2023-05-29T10:19:38;26.20;19.80
24636;DHT22;12772;49.794;10.024;2023-05-29T10:23:45;26.20;18.70
24636;DHT22;12772;49.794;10.024;2023-05-29T10:27:48;26.20;19.10
24636;DHT22;12772;49.794;10.024;2023-05-29T10:36:17;26.30;19.30
24636;DHT22;12772;49.794;10.024;2023-05-29T10:40:27;26.50;20.20
24636;DHT22;12772;49.794;10.024;2023-05-29T10:48:41;26.80;18.90
24636;DHT22;12772;49.794;10.024;2023-05-29T10:52:46;26.80;18.50
24636;DHT22;12772;49.794;10.024;2023-05-29T10:56:54;26.90;19.20
24636;DHT22;12772;49.794;10.024;2023-05-29T11:00:57;26.90;19.00
24636;DHT22;12772;49.794;10.024;2023-05-29T11:05:05;27.10;18.80
24636;DHT22;12772;49.794;10.024;2023-05-29T11:09:35;27.10;18.30
24636;DHT22;12772;49.794;10.024;2023-05-29T11:13:38;27.30;18.60
24636;DHT22;12772;49.794;10.024;2023-05-29T11:17:44;27.30;18.40
24636;DHT22;12772;49.794;10.024;2023-05-29T11:22:07;27.40;19.30
24636;DHT22;12772;49.794;10.024;2023-05-29T11:26:12;27.50;18.40
24636;DHT22;12772;49.794;10.024;2023-05-29T11:30:21;27.60;19.00
24636;DHT22;12772;49.794;10.024;2023-05-29T11:34:23;27.70;19.00
24636;DHT22;12772;49.794;10.024;2023-05-29T11:38:28;27.80;18.90
24636;DHT22;12772;49.794;10.024;2023-05-29T11:42:31;27.80;18.90
24636;DHT22;12772;49.794;10.024;2023-05-29T11:46:33;27.80;18.80
24636;DHT22;12772;49.794;10.024;2023-05-29T11:50:36;27.90;19.50
24636;DHT22;12772;49.794;10.024;2023-05-29T11:54:38;28.00;19.50
24636;DHT22;12772;49.794;10.024;2023-05-29T11:58:41;28.00;19.50
24636;DHT22;12772;49.794;10.024;2023-05-29T12:02:44;28.00;19.50
24636;DHT22;12772;49.794;10.024;2023-05-29T12:06:47;28.10;19.80
24636;DHT22;12772;49.794;10.024;2023-05-29T12:10:51;28.20;19.10
24636;DHT22;12772;49.794;10.024;2023-05-29T12:14:53;28.30;18.10
24636;DHT22;12772;49.794;10.024;2023-05-29T12:18:55;28.30;17.90
24636;DHT22;12772;49.794;10.024;2023-05-29T12:23:01;28.40;18.40
24636;DHT22;12772;49.794;10.024;2023-05-29T12:27:04;28.40;19.30
24636;DHT22;12772;49.794;10.024;2023-05-29T12:31:08;28.50;18.40
24636;DHT22;12772;49.794;10.024;2023-05-29T12:35:18;28.60;19.00
24636;DHT22;12772;49.794;10.024;2023-05-29T12:39:20;28.80;17.70
24636;DHT22;12772;49.794;10.024;2023-05-29T12:43:23;28.80;17.50
24636;DHT22;12772;49.794;10.024;2023-05-29T12:47:25;28.90;18.20
24636;DHT22;12772;49.794;10.024;2023-05-29T12:51:27;28.80;17.40
24636;DHT22;12772;49.794;10.024;2023-05-29T12:55:34;28.90;18.20
24636;DHT22;12772;49.794;10.024;2023-05-29T12:59:37;28.90;17.80
24636;DHT22;12772;49.794;10.024;2023-05-29T13:03:39;28.90;16.80
24636;DHT22;12772;49.794;10.024;2023-05-29T13:07:42;28.90;16.90
24636;DHT22;12772;49.794;10.024;2023-05-29T13:11:44;28.80;17.40
24636;DHT22;12772;49.794;10.024;2023-05-29T13:15:46;28.90;16.90
24636;DHT22;12772;49.794;10.024;2023-05-29T13:19:48;29.00;16.90
24636;DHT22;12772;49.794;10.024;2023-05-29T13:23:50;29.00;16.90
24636;DHT22;12772;49.794;10.024;2023-05-29T13:27:53;29.00;16.90
24636;DHT22;12772;49.794;10.024;2023-05-29T13:31:56;29.00;16.90
24636;DHT22;12772;49.794;10.024;2023-05-29T13:35:58;28.90;16.90
24636;DHT22;12772;49.794;10.024;2023-05-29T13:40:00;28.90;16.90
24636;DHT22;12772;49.794;10.024;2023-05-29T13:44:03;28.90;16.90
24636;DHT22;12772;49.794;10.024;2023-05-29T13:48:05;29.00;17.70
24636;DHT22;12772;49.794;10.024;2023-05-29T13:52:07;29.00;16.90
24636;DHT22;12772;49.794;10.024;2023-05-29T13:56:09;29.00;16.90
24636;DHT22;12772;49.794;10.024;2023-05-29T14:00:11;29.00;16.90
24636;DHT22;12772;49.794;10.024;2023-05-29T14:04:14;29.00;16.20
24636;DHT22;12772;49.794;10.024;2023-05-29T14:08:16;28.90;16.20
24636;DHT22;12772;49.794;10.024;2023-05-29T14:12:18;28.90;16.90
24636;DHT22;12772;49.794;10.024;2023-05-29T14:16:20;29.00;16.10
24636;DHT22;12772;49.794;10.024;2023-05-29T14:20:22;29.00;15.90
24636;DHT22;12772;49.794;10.024;2023-05-29T14:24:24;29.00;16.20
24636;DHT22;12772;49.794;10.024;2023-05-29T14:28:26;29.00;16.20
24636;DHT22;12772;49.794;10.024;2023-05-29T14:32:28;29.10;16.00
24636;DHT22;12772;49.794;10.024;2023-05-29T14:36:30;29.10;16.90
24636;DHT22;12772;49.794;10.024;2023-05-29T14:40:32;29.10;16.70
24636;DHT22;12772;49.794;10.024;2023-05-29T14:44:34;29.10;17.10
24636;DHT22;12772;49.794;10.024;2023-05-29T14:48:36;29.00;16.90
24636;DHT22;12772;49.794;10.024;2023-05-29T14:52:39;29.00;16.00
24636;DHT22;12772;49.794;10.024;2023-05-29T14:56:41;28.80;15.80
24636;DHT22;12772;49.794;10.024;2023-05-29T15:00:43;28.70;16.70
24636;DHT22;12772;49.794;10.024;2023-05-29T15:04:45;28.70;16.80
24636;DHT22;12772;49.794;10.024;2023-05-29T15:08:48;28.70;16.70
24636;DHT22;12772;49.794;10.024;2023-05-29T15:12:52;28.60;16.70
24636;DHT22;12772;49.794;10.024;2023-05-29T15:16:57;28.60;17.10
24636;DHT22;12772;49.794;10.024;2023-05-29T15:20:59;28.60;16.70
24636;DHT22;12772;49.794;10.024;2023-05-29T15:25:01;28.50;16.60
24636;DHT22;12772;49.794;10.024;2023-05-29T15:29:03;28.50;16.80
24636;DHT22;12772;49.794;10.024;2023-05-29T15:33:05;28.40;16.70
24636;DHT22;12772;49.794;10.024;2023-05-29T15:37:10;28.40;17.40
24636;DHT22;12772;49.794;10.024;2023-05-29T15:41:12;28.30;17.50
24636;DHT22;12772;49.794;10.024;2023-05-29T15:45:15;28.30;17.40
24636;DHT22;12772;49.794;10.024;2023-05-29T15:49:17;28.20;17.50
24636;DHT22;12772;49.794;10.024;2023-05-29T15:53:19;28.20;17.00
24636;DHT22;12772;49.794;10.024;2023-05-29T15:57:21;28.20;17.30
24636;DHT22;12772;49.794;10.024;2023-05-29T16:01:23;28.20;17.50
24636;DHT22;12772;49.794;10.024;2023-05-29T16:05:25;28.20;17.40
24636;DHT22;12772;49.794;10.024;2023-05-29T16:09:28;28.20;17.70
24636;DHT22;12772;49.794;10.024;2023-05-29T16:13:30;28.10;18.20
24636;DHT22;12772;49.794;10.024;2023-05-29T16:17:33;28.00;18.10
24636;DHT22;12772;49.794;10.024;2023-05-29T16:21:35;28.00;18.10
24636;DHT22;12772;49.794;10.024;2023-05-29T16:25:37;27.90;18.00
24636;DHT22;12772;49.794;10.024;2023-05-29T16:29:39;27.90;18.40
24636;DHT22;12772;49.794;10.024;2023-05-29T16:33:41;27.80;18.30
24636;DHT22;12772;49.794;10.024;2023-05-29T16:37:43;27.80;18.90
24636;DHT22;12772;49.794;10.024;2023-05-29T16:41:46;27.70;18.20
24636;DHT22;12772;49.794;10.024;2023-05-29T16:45:48;27.60;18.60
24636;DHT22;12772;49.794;10.024;2023-05-29T16:49:50;27.50;19.10
24636;DHT22;12772;49.794;10.024;2023-05-29T16:53:52;27.50;19.30
24636;DHT22;12772;49.794;10.024;2023-05-29T16:57:54;27.40;19.50
24636;DHT22;12772;49.794;10.024;2023-05-29T17:01:56;27.30;19.40
24636;DHT22;12772;49.794;10.024;2023-05-29T17:05:58;27.30;19.60
24636;DHT22;12772;49.794;10.024;2023-05-29T17:10:00;27.30;19.40
24636;DHT22;12772;49.794;10.024;2023-05-29T17:14:02;27.20;19.20
24636;DHT22;12772;49.794;10.024;2023-05-29T17:18:04;27.10;20.10
24636;DHT22;12772;49.794;10.024;2023-05-29T17:22:06;27.00;20.00
24636;DHT22;12772;49.794;10.024;2023-05-29T17:26:09;26.90;20.30
24636;DHT22;12772;49.794;10.024;2023-05-29T17:30:12;26.80;20.70
24636;DHT22;12772;49.794;10.024;2023-05-29T17:34:14;26.70;21.40
24636;DHT22;12772;49.794;10.024;2023-05-29T17:38:16;26.60;21.40
24636;DHT22;12772;49.794;10.024;2023-05-29T17:42:18;26.50;21.30
24636;DHT22;12772;49.794;10.024;2023-05-29T17:46:20;26.30;21.70
24636;DHT22;12772;49.794;10.024;2023-05-29T17:50:22;26.10;21.00
24636;DHT22;12772;49.794;10.024;2023-05-29T17:54:24;26.10;21.00
24636;DHT22;12772;49.794;10.024;2023-05-29T17:58:26;26.00;21.00
24636;DHT22;12772;49.794;10.024;2023-05-29T18:02:28;25.90;21.40
24636;DHT22;12772;49.794;10.024;2023-05-29T18:06:30;25.90;21.60
24636;DHT22;12772;49.794;10.024;2023-05-29T18:10:33;25.70;21.90
24636;DHT22;12772;49.794;10.024;2023-05-29T18:14:35;25.60;22.00
24636;DHT22;12772;49.794;10.024;2023-05-29T18:18:37;25.50;22.20
24636;DHT22;12772;49.794;10.024;2023-05-29T18:22:39;25.50;22.50
24636;DHT22;12772;49.794;10.024;2023-05-29T18:26:41;25.40;22.80
24636;DHT22;12772;49.794;10.024;2023-05-29T18:30:44;25.20;23.10
24636;DHT22;12772;49.794;10.024;2023-05-29T18:34:46;25.10;23.20
24636;DHT22;12772;49.794;10.024;2023-05-29T18:38:48;25.00;23.30
24636;DHT22;12772;49.794;10.024;2023-05-29T18:42:54;24.90;23.40
24636;DHT22;12772;49.794;10.024;2023-05-29T18:46:56;24.80;23.50
24636;DHT22;12772;49.794;10.024;2023-05-29T18:50:58;24.70;23.60
24636;DHT22;12772;49.794;10.024;2023-05-29T18:55:02;24.60;23.70
24636;DHT22;12772;49.794;10.024;2023-05-29T18:59:05;24.50;24.00
24636;DHT22;12772;49.794;10.024;2023-05-29T19:03:07;24.40;24.20
24636;DHT22;12772;49.794;10.024;2023-05-29T19:07:09;24.20;24.30
24636;DHT22;12772;49.794;10.024;2023-05-29T19:11:11;24.20;24.60
24636;DHT22;12772;49.794;10.024;2023-05-29T19:15:15;24.10;24.90
24636;DHT22;12772;49.794;10.024;2023-05-29T19:19:17;23.90;25.20
24636;DHT22;12772;49.794;10.024;2023-05-29T19:23:20;23.80;25.20
24636;DHT22;12772;49.794;10.024;2023-05-29T19:27:22;23.80;25.20
24636;DHT22;12772;49.794;10.024;2023-05-29T19:31:25;23.70;25.10
24636;DHT22;12772;49.794;10.024;2023-05-29T19:35:27;23.60;25.40
24636;DHT22;12772;49.794;10.024;2023-05-29T19:39:30;23.50;25.50
24636;DHT22;12772;49.794;10.024;2023-05-29T19:43:32;23.50;25.70
24636;DHT22;12772;49.794;10.024;2023-05-29T19:47:34;23.40;25.70
24636;DHT22;12772;49.794;10.024;2023-05-29T19:51:36;23.30;25.70
24636;DHT22;12772;49.794;10.024;2023-05-29T19:55:38;23.30;25.90
24636;DHT22;12772;49.794;10.024;2023-05-29T19:59:40;23.30;26.10
24636;DHT22;12772;49.794;10.024;2023-05-29T20:03:43;23.20;26.20
24636;DHT22;12772;49.794;10.024;2023-05-29T20:07:45;23.00;26.30
24636;DHT22;12772;49.794;10.024;2023-05-29T20:11:47;23.00;26.50
24636;DHT22;12772;49.794;10.024;2023-05-29T20:15:49;23.00;26.70
24636;DHT22;12772;49.794;10.024;2023-05-29T20:19:51;22.90;26.70
24636;DHT22;12772;49.794;10.024;2023-05-29T20:23:55;22.90;26.80
24636;DHT22;12772;49.794;10.024;2023-05-29T20:27:57;22.80;27.10
24636;DHT22;12772;49.794;10.024;2023-05-29T20:31:59;22.80;27.10
24636;DHT22;12772;49.794;10.024;2023-05-29T20:36:01;22.70;27.20
24636;DHT22;12772;49.794;10.024;2023-05-29T20:40:03;22.70;27.60
24636;DHT22;12772;49.794;10.024;2023-05-29T20:44:06;22.50;27.60
24636;DHT22;12772;49.794;10.024;2023-05-29T20:48:08;22.50;27.80
24636;DHT22;12772;49.794;10.024;2023-05-29T20:52:10;22.40;28.10
24636;DHT22;12772;49.794;10.024;2023-05-29T20:56:12;22.20;28.20
24636;DHT22;12772;49.794;10.024;2023-05-29T21:00:14;22.10;28.50
24636;DHT22;12772;49.794;10.024;2023-05-29T21:04:18;22.00;28.80
24636;DHT22;12772;49.794;10.024;2023-05-29T21:08:20;21.90;29.20
24636;DHT22;12772;49.794;10.024;2023-05-29T21:12:22;21.70;29.60
24636;DHT22;12772;49.794;10.024;2023-05-29T21:16:24;21.70;29.10
24636;DHT22;12772;49.794;10.024;2023-05-29T21:20:26;21.60;29.00
24636;DHT22;12772;49.794;10.024;2023-05-29T21:24:28;21.50;28.90
24636;DHT22;12772;49.794;10.024;2023-05-29T21:28:31;21.40;28.90
24636;DHT22;12772;49.794;10.024;2023-05-29T21:32:33;21.40;29.00
24636;DHT22;12772;49.794;10.024;2023-05-29T21:36:35;21.30;29.60
24636;DHT22;12772;49.794;10.024;2023-05-29T21:40:38;21.20;29.60
24636;DHT22;12772;49.794;10.024;2023-05-29T21:44:42;21.20;29.90
24636;DHT22;12772;49.794;10.024;2023-05-29T21:48:44;21.10;30.10
24636;DHT22;12772;49.794;10.024;2023-05-29T21:52:46;21.10;30.30
24636;DHT22;12772;49.794;10.024;2023-05-29T21:56:48;21.10;30.30
24636;DHT22;12772;49.794;10.024;2023-05-29T22:00:50;21.10;30.50
24636;DHT22;12772;49.794;10.024;2023-05-29T22:04:53;21.00;30.60
24636;DHT22;12772;49.794;10.024;2023-05-29T22:08:55;20.90;30.80
24636;DHT22;12772;49.794;10.024;2023-05-29T22:13:00;20.90;31.10
24636;DHT22;12772;49.794;10.024;2023-05-29T22:17:04;20.90;31.20
24636;DHT22;12772;49.794;10.024;2023-05-29T22:21:06;20.80;31.20
24636;DHT22;12772;49.794;10.024;2023-05-29T22:25:10;20.70;31.50
24636;DHT22;12772;49.794;10.024;2023-05-29T22:29:13;20.60;31.60
24636;DHT22;12772;49.794;10.024;2023-05-29T22:33:15;20.50;31.80
24636;DHT22;12772;49.794;10.024;2023-05-29T22:37:17;20.60;32.10
24636;DHT22;12772;49.794;10.024;2023-05-29T22:41:19;20.50;32.30
24636;DHT22;12772;49.794;10.024;2023-05-29T22:45:22;20.40;32.20
24636;DHT22;12772;49.794;10.024;2023-05-29T22:49:24;20.40;32.40
24636;DHT22;12772;49.794;10.024;2023-05-29T22:53:27;20.30;32.40
24636;DHT22;12772;49.794;10.024;2023-05-29T22:57:29;20.30;32.40
24636;DHT22;12772;49.794;10.024;2023-05-29T23:01:31;20.30;32.60
24636;DHT22;12772;49.794;10.024;2023-05-29T23:05:33;20.20;32.40
24636;DHT22;12772;49.794;10.024;2023-05-29T23:09:35;20.20;32.50
24636;DHT22;12772;49.794;10.024;2023-05-29T23:13:38;20.10;32.50
24636;DHT22;12772;49.794;10.024;2023-05-29T23:17:40;20.20;32.60
24636;DHT22;12772;49.794;10.024;2023-05-29T23:21:42;20.10;32.50
24636;DHT22;12772;49.794;10.024;2023-05-29T23:25:44;20.10;32.50
24636;DHT22;12772;49.794;10.024;2023-05-29T23:29:47;20.00;32.30
24636;DHT22;12772;49.794;10.024;2023-05-29T23:33:49;20.00;32.40
24636;DHT22;12772;49.794;10.024;2023-05-29T23:37:51;19.90;32.40
24636;DHT22;12772;49.794;10.024;2023-05-29T23:41:53;19.80;32.40
24636;DHT22;12772;49.794;10.024;2023-05-29T23:45:55;19.80;32.70
24636;DHT22;12772;49.794;10.024;2023-05-29T23:49:57;19.70;32.80
24636;DHT22;12772;49.794;10.024;2023-05-29T23:54:00;19.70;32.90
24636;DHT22;12772;49.794;10.024;2023-05-29T23:58:03;19.70;32.80
